Time;durP1;ratioP1;P1;durP2;ratioP2;P2;SDS_P1;SDS_P2;PMS_P1;PMS_P2;Temp;Humidity;BMP_temperature;BMP_pressure;BME280_temperature;BME280_humidity;BME280_pressure;Samples;Min_cycle;Max_cycle;Signal;HPM_P1;HPM_P2
2023/10/31 00:02:16;;;;;;;23.27;9.52;;;;;;;12.20;100.00;97524.94;5071911;28;20028;-76
2023/10/31 00:04:42;;;;;;;15.13;9.27;;;;;;;12.23;100.00;97519.38;5063809;28;20129;-76
2023/10/31 00:07:07;;;;;;;18.90;9.55;;;;;;;12.19;100.00;97517.84;5055074;28;20438;-75
2023/10/31 00:09:32;;;;;;;20.38;9.13;;;;;;;12.19;100.00;97522.34;5041324;28;20123;-75
2023/10/31 00:11:58;;;;;;;14.77;9.10;;;;;;;12.24;100.00;97518.41;5057312;28;20091;-75
2023/10/31 00:14:24;;;;;;;17.88;8.55;;;;;;;12.22;100.00;97512.28;5040429;28;20469;-75
2023/10/31 00:16:49;;;;;;;16.13;9.43;;;;;;;12.15;100.00;97512.84;5051767;28;20021;-76
2023/10/31 00:19:15;;;;;;;23.48;9.23;;;;;;;12.14;100.00;97505.75;5051222;28;20055;-75
2023/10/31 00:21:40;;;;;;;18.73;8.98;;;;;;;12.06;100.00;97502.75;5065914;28;20044;-75
2023/10/31 00:24:06;;;;;;;24.90;8.63;;;;;;;11.99;100.00;97501.44;5071476;28;20054;-74
2023/10/31 00:26:32;;;;;;;18.75;9.10;;;;;;;11.97;100.00;97503.38;5070779;28;20109;-75
2023/10/31 00:29:06;;;;;;;17.25;8.65;;;;;;;11.98;100.00;97511.28;5070794;28;20031;-75
2023/10/31 00:31:34;;;;;;;20.70;9.57;;;;;;;11.98;100.00;97511.28;5072622;28;20027;-75
2023/10/31 00:34:01;;;;;;;15.27;8.68;;;;;;;11.96;100.00;97502.50;5071606;28;20358;-76
2023/10/31 00:36:26;;;;;;;19.45;8.65;;;;;;;11.93;100.00;97498.19;5071241;28;20100;-75
2023/10/31 00:38:52;;;;;;;17.05;8.73;;;;;;;11.95;100.00;97498.97;5071507;28;20112;-75
2023/10/31 00:41:17;;;;;;;20.52;8.65;;;;;;;11.90;100.00;97497.56;5087760;28;20033;-75
2023/10/31 00:43:43;;;;;;;19.63;8.90;;;;;;;11.88;100.00;97510.19;5070994;28;20027;-75
2023/10/31 00:46:08;;;;;;;17.23;8.25;;;;;;;11.86;100.00;97488.00;5071024;28;20037;-75
2023/10/31 00:48:36;;;;;;;21.13;8.63;;;;;;;11.88;100.00;97499.47;5071031;28;20025;-74
2023/10/31 00:51:03;;;;;;;18.02;8.32;;;;;;;11.90;100.00;97494.88;5071467;28;20091;-75
2023/10/31 00:53:29;;;;;;;17.98;8.75;;;;;;;11.92;100.00;97496.50;5068584;28;20467;-75
2023/10/31 00:55:54;;;;;;;18.92;8.80;;;;;;;11.89;100.00;97485.13;5070936;28;20032;-75
2023/10/31 00:58:20;;;;;;;17.10;8.70;;;;;;;11.89;100.00;97485.13;5070903;28;20081;-75
2023/10/31 01:00:45;;;;;;;17.17;8.95;;;;;;;11.80;100.00;97475.03;5070873;28;20012;-75
2023/10/31 01:03:11;;;;;;;15.13;7.68;;;;;;;11.82;100.00;97486.50;5070739;28;20029;-75
2023/10/31 01:05:36;;;;;;;15.00;8.35;;;;;;;11.77;100.00;97481.47;5070833;28;20016;-75
2023/10/31 01:08:05;;;;;;;24.33;8.80;;;;;;;11.80;100.00;97480.38;5071019;28;20029;-75
2023/10/31 01:10:31;;;;;;;15.40;8.38;;;;;;;11.77;100.00;97469.88;5070189;28;20048;-75
2023/10/31 01:12:56;;;;;;;16.27;8.45;;;;;;;11.69;100.00;97469.50;5070843;28;20048;-75
2023/10/31 01:15:22;;;;;;;15.45;8.70;;;;;;;11.70;100.00;97468.56;5070415;28;20079;-75
2023/10/31 01:17:47;;;;;;;15.10;7.93;;;;;;;11.67;100.00;97468.72;5070704;28;20086;-76
2023/10/31 01:20:13;;;;;;;20.63;8.45;;;;;;;11.69;100.00;97470.34;5070625;28;20059;-76
2023/10/31 01:22:38;;;;;;;15.63;7.55;;;;;;;11.68;100.00;97471.31;5071597;28;20037;-75
2023/10/31 01:25:04;;;;;;;19.08;8.60;;;;;;;11.66;100.00;97461.69;5087256;28;20097;-75
2023/10/31 01:27:30;;;;;;;12.98;7.30;;;;;;;11.71;100.00;97467.59;5070256;28;20032;-75
2023/10/31 01:29:56;;;;;;;17.77;7.97;;;;;;;11.67;100.00;97464.25;5066136;28;20483;-76
2023/10/31 01:32:21;;;;;;;13.05;7.53;;;;;;;11.67;100.00;97458.03;5070073;28;20105;-75
2023/10/31 01:34:48;;;;;;;17.92;7.80;;;;;;;11.64;100.00;97450.19;5070228;28;20024;-76
2023/10/31 01:37:14;;;;;;;16.70;7.60;;;;;;;11.67;100.00;97463.38;5070117;28;20035;-76
2023/10/31 01:39:40;;;;;;;17.25;7.30;;;;;;;11.62;100.00;97457.47;5069840;28;20396;-75
2023/10/31 01:42:06;;;;;;;11.38;7.07;;;;;;;11.60;100.00;97441.50;5069904;28;20356;-75
2023/10/31 01:44:31;;;;;;;15.05;7.25;;;;;;;11.61;100.00;97445.03;5069974;28;20024;-75
2023/10/31 01:46:57;;;;;;;17.83;7.55;;;;;;;11.56;100.00;97456.09;5069916;28;20020;-75
2023/10/31 01:49:22;;;;;;;16.42;7.65;;;;;;;11.42;100.00;97443.59;5069888;28;20033;-76
2023/10/31 01:51:48;;;;;;;14.93;7.28;;;;;;;11.49;100.00;97445.88;5069867;28;20020;-75
2023/10/31 01:54:14;;;;;;;14.25;7.28;;;;;;;11.42;100.00;97448.97;5069908;28;20082;-75
2023/10/31 01:56:40;;;;;;;14.43;7.05;;;;;;;11.37;100.00;97453.78;5069483;28;20020;-75
2023/10/31 01:59:06;;;;;;;18.83;7.47;;;;;;;11.21;100.00;97455.75;5069848;28;20059;-75
2023/10/31 02:01:32;;;;;;;13.20;7.45;;;;;;;11.10;100.00;97447.56;5069453;28;20036;-75
2023/10/31 02:03:58;;;;;;;15.68;7.43;;;;;;;11.02;100.00;97449.88;5069513;28;20500;-74
2023/10/31 02:06:24;;;;;;;9.93;6.95;;;;;;;11.02;100.00;97455.22;5069658;28;20036;-74
2023/10/31 02:08:50;;;;;;;13.32;6.88;;;;;;;10.98;100.00;97448.38;5069530;28;20079;-75
2023/10/31 02:11:15;;;;;;;11.35;6.57;;;;;;;11.01;100.00;97458.88;5069627;28;20024;-75
2023/10/31 02:13:41;;;;;;;11.23;6.88;;;;;;;11.05;100.00;97459.50;5069261;28;20020;-74
2023/10/31 02:16:06;;;;;;;15.77;6.78;;;;;;;11.05;100.00;97455.03;5070914;28;20028;-75
2023/10/31 02:18:33;;;;;;;16.13;7.10;;;;;;;11.06;100.00;97446.03;5069438;28;20024;-75
2023/10/31 02:20:59;;;;;;;12.05;6.30;;;;;;;11.06;100.00;97440.69;5069359;28;20092;-74
2023/10/31 02:23:24;;;;;;;19.60;7.53;;;;;;;10.97;100.00;97433.25;5069237;28;20043;-75
2023/10/31 02:25:50;;;;;;;11.90;6.40;;;;;;;11.04;100.00;97456.00;5052498;28;20024;-75
2023/10/31 02:28:15;;;;;;;14.27;6.47;;;;;;;10.92;100.00;97448.75;5069514;28;20035;-74
2023/10/31 02:30:41;;;;;;;15.02;6.60;;;;;;;10.91;100.00;97451.53;5052339;28;20052;-75
2023/10/31 02:33:06;;;;;;;15.27;6.95;;;;;;;10.86;100.00;97444.66;5069298;28;20092;-75
2023/10/31 02:35:32;;;;;;;13.98;7.88;;;;;;;10.93;100.00;97454.97;5069177;28;20032;-75
2023/10/31 02:37:57;;;;;;;17.30;7.10;;;;;;;10.88;100.00;97448.09;5069320;28;20396;-74
2023/10/31 02:40:23;;;;;;;17.42;7.28;;;;;;;10.83;100.00;97455.56;5069204;28;20025;-75
2023/10/31 02:42:48;;;;;;;17.33;7.00;;;;;;;10.86;100.00;97454.50;5068838;28;20028;-75
2023/10/31 02:45:14;;;;;;;17.13;8.07;;;;;;;10.86;100.00;97455.34;5069537;28;20048;-76
2023/10/31 02:47:39;;;;;;;14.23;7.05;;;;;;;10.86;100.00;97449.16;5070565;28;20116;-76
2023/10/31 02:50:06;;;;;;;15.05;7.35;;;;;;;10.91;100.00;97449.72;5070976;28;20035;-76
2023/10/31 02:52:31;;;;;;;25.52;8.18;;;;;;;10.82;100.00;97447.66;5075563;28;20052;-76
2023/10/31 02:54:57;;;;;;;14.98;7.97;;;;;;;10.77;100.00;97449.72;5058906;28;20507;-75
2023/10/31 02:57:22;;;;;;;15.93;8.18;;;;;;;10.79;100.00;97447.84;5075777;28;20020;-75
2023/10/31 02:59:48;;;;;;;16.00;8.25;;;;;;;10.81;100.00;97445.91;5075624;28;20082;-75
2023/10/31 03:02:13;;;;;;;19.02;8.02;;;;;;;10.78;100.00;97456.81;5076891;28;20031;-75
2023/10/31 03:04:39;;;;;;;22.30;9.70;;;;;;;10.70;100.00;97453.78;5075496;28;20082;-75
2023/10/31 03:07:04;;;;;;;31.83;13.05;;;;;;;10.62;100.00;97445.38;5075645;28;20337;-75
2023/10/31 03:09:30;;;;;;;38.67;13.00;;;;;;;10.60;100.00;97453.50;5075463;28;20027;-75
2023/10/31 03:11:55;;;;;;;68.43;18.30;;;;;;;10.66;100.00;97446.91;5075538;28;20444;-76
2023/10/31 03:14:21;;;;;;;41.72;14.65;;;;;;;10.67;100.00;97446.81;5058961;28;20032;-75
2023/10/31 03:16:46;;;;;;;27.33;10.93;;;;;;;10.71;100.00;97434.94;5076637;28;20077;-75
2023/10/31 03:19:12;;;;;;;24.45;11.10;;;;;;;10.66;100.00;97436.19;5075565;28;20025;-76
2023/10/31 03:21:37;;;;;;;23.15;10.48;;;;;;;10.75;100.00;97433.78;5076508;28;20048;-76
2023/10/31 03:24:03;;;;;;;20.05;10.27;;;;;;;10.76;100.00;97440.00;5058281;28;20119;-76
2023/10/31 03:26:29;;;;;;;18.15;9.88;;;;;;;10.78;100.00;97428.25;5075420;28;20033;-75
2023/10/31 03:28:57;;;;;;;38.10;16.33;;;;;;;10.76;100.00;97423.97;5075280;28;20024;-75
2023/10/31 03:31:23;;;;;;;42.67;20.05;;;;;;;10.80;100.00;97423.66;5075504;28;20471;-76
2023/10/31 03:33:48;;;;;;;33.00;15.52;;;;;;;10.80;100.00;97420.09;5075268;28;20020;-75
2023/10/31 03:36:14;;;;;;;18.20;9.43;;;;;;;10.66;100.00;97404.09;5075318;28;20090;-76
2023/10/31 03:38:39;;;;;;;23.50;10.73;;;;;;;10.69;100.00;97417.28;5075086;28;20028;-77
2023/10/31 03:41:05;;;;;;;36.17;17.10;;;;;;;10.65;100.00;97408.59;5058487;28;20111;-76
2023/10/31 03:43:31;;;;;;;47.17;23.70;;;;;;;10.68;100.00;97412.88;5075498;28;20036;-75
2023/10/31 03:45:56;;;;;;;82.70;42.28;;;;;;;10.67;100.00;97401.34;5075145;28;20025;-75
2023/10/31 03:48:22;;;;;;;18.20;8.15;;;;;;;10.76;100.00;97407.91;5076496;28;20035;-74
2023/10/31 03:50:49;;;;;;;20.05;10.38;;;;;;;10.95;100.00;97411.06;5075095;28;20131;-76
2023/10/31 03:53:15;;;;;;;17.05;9.55;;;;;;;11.05;100.00;97405.97;5058401;28;20032;-75
2023/10/31 03:55:40;;;;;;;21.65;9.23;;;;;;;11.14;100.00;97400.88;5092060;28;20047;-76
2023/10/31 03:58:06;;;;;;;14.27;6.88;;;;;;;11.15;100.00;97399.94;5074964;28;20484;-76
2023/10/31 04:00:31;;;;;;;11.73;5.55;;;;;;;11.04;100.00;97394.44;5075178;28;20066;-76
2023/10/31 04:02:57;;;;;;;10.38;6.47;;;;;;;10.98;100.00;97394.84;5072162;28;20017;-75
2023/10/31 04:05:23;;;;;;;11.95;5.93;;;;;;;10.92;100.00;97394.41;5072068;28;20028;-76
2023/10/31 04:07:49;;;;;;;14.55;6.32;;;;;;;10.91;100.00;97409.59;5071683;28;20021;-74
2023/10/31 04:10:15;;;;;;;17.23;6.78;;;;;;;10.93;100.00;97407.66;5071796;28;20039;-75
2023/10/31 04:12:41;;;;;;;28.48;6.53;;;;;;;10.80;100.00;97396.03;5071842;28;20099;-75
2023/10/31 04:15:07;;;;;;;22.50;7.97;;;;;;;10.68;100.00;97391.47;5071767;28;20437;-75
2023/10/31 04:17:33;;;;;;;22.90;8.15;;;;;;;10.60;100.00;97397.34;5071575;28;20089;-75
2023/10/31 04:19:58;;;;;;;21.23;8.60;;;;;;;10.47;100.00;97376.81;5072827;28;20024;-76
2023/10/31 04:22:24;;;;;;;19.13;8.40;;;;;;;10.49;100.00;97377.59;5071333;28;20101;-74
2023/10/31 04:24:49;;;;;;;22.90;9.25;;;;;;;10.42;100.00;97374.47;5071476;28;20028;-76
2023/10/31 04:27:17;;;;;;;23.92;8.18;;;;;;;10.33;100.00;97378.59;5071391;28;20454;-75
2023/10/31 04:29:42;;;;;;;16.42;7.82;;;;;;;10.26;100.00;97376.38;5071508;28;20081;-75
2023/10/31 04:32:08;;;;;;;13.40;7.22;;;;;;;10.16;100.00;97377.91;5071237;28;20036;-75
2023/10/31 04:34:33;;;;;;;15.75;7.57;;;;;;;10.16;100.00;97364.53;5071156;28;20492;-76
2023/10/31 04:36:59;;;;;;;14.48;7.65;;;;;;;10.12;100.00;97374.53;5070996;28;20024;-75
2023/10/31 04:39:24;;;;;;;21.35;8.98;;;;;;;10.12;100.00;97373.69;5071144;28;20108;-74
2023/10/31 04:41:50;;;;;;;20.23;8.73;;;;;;;10.14;100.00;97375.34;5071176;28;20024;-75
2023/10/31 04:44:16;;;;;;;12.43;7.53;;;;;;;10.38;100.00;97378.28;5070468;28;20491;-75
2023/10/31 04:46:42;;;;;;;21.60;8.95;;;;;;;10.44;100.00;97377.88;5071144;28;20023;-75
2023/10/31 04:49:08;;;;;;;20.42;8.27;;;;;;;10.42;100.00;97381.63;5070873;28;20025;-75
2023/10/31 04:51:34;;;;;;;18.20;8.90;;;;;;;10.62;100.00;97381.19;5072062;28;20029;-76
2023/10/31 04:54:00;;;;;;;13.45;8.63;;;;;;;10.63;100.00;97388.25;5070763;28;20017;-76
2023/10/31 04:56:25;;;;;;;24.08;11.55;;;;;;;10.63;100.00;97378.41;5072135;28;20024;-76
2023/10/31 04:58:51;;;;;;;27.33;10.60;;;;;;;10.61;100.00;97368.78;5067929;28;20032;-75
2023/10/31 05:01:16;;;;;;;18.35;9.25;;;;;;;10.61;100.00;97369.63;5070564;28;20410;-76
2023/10/31 05:03:42;;;;;;;25.65;11.23;;;;;;;10.64;100.00;97363.22;5070675;28;20031;-77
2023/10/31 05:06:07;;;;;;;32.78;11.93;;;;;;;10.76;100.00;97373.13;5071748;28;20100;-72
2023/10/31 05:09:35;;;;;;;;;;;;;;;;;;;;;
2023/10/31 05:11:50;;;;;;;34.83;12.10;;;;;;;10.71;100.00;97348.47;5054534;28;20040;-73
2023/10/31 05:14:15;;;;;;;20.42;9.63;;;;;;;10.88;100.00;97372.31;5061369;28;20500;-72
2023/10/31 05:16:42;;;;;;;25.63;11.85;;;;;;;10.99;100.00;97391.19;5065856;28;20037;-72
2023/10/31 05:19:08;;;;;;;24.38;10.45;;;;;;;10.96;100.00;97385.19;5049901;28;20056;-73
2023/10/31 05:21:34;;;;;;;21.88;8.90;;;;;;;10.94;100.00;97381.75;5051329;28;20059;-74
2023/10/31 05:23:59;;;;;;;24.55;8.85;;;;;;;10.97;100.00;97393.13;5052960;28;20028;-73
2023/10/31 05:26:25;;;;;;;21.35;10.52;;;;;;;10.96;100.00;97390.53;5052865;28;20036;-73
2023/10/31 05:28:50;;;;;;;25.92;8.98;;;;;;;10.93;100.00;97388.91;5052779;28;20476;-73
2023/10/31 05:31:17;;;;;;;20.13;11.07;;;;;;;10.97;100.00;97397.63;5052240;28;20046;-74
2023/10/31 05:33:43;;;;;;;26.08;14.13;;;;;;;10.99;100.00;97388.50;5069327;28;20028;-74
2023/10/31 05:36:18;;;;;;;37.92;12.57;;;;;;;10.93;100.00;97404.97;5069216;28;20028;-74
2023/10/31 05:38:44;;;;;;;36.78;18.58;;;;;;;10.88;100.00;97399.94;5052785;28;20447;-72
2023/10/31 05:41:09;;;;;;;35.08;14.35;;;;;;;10.96;100.00;97399.44;5052373;28;20036;-73
2023/10/31 05:43:35;;;;;;;36.13;11.75;;;;;;;11.04;100.00;97394.44;5068947;28;20040;-74
2023/10/31 05:46:00;;;;;;;32.70;9.48;;;;;;;11.07;100.00;97402.28;5069960;28;20377;-74
2023/10/31 05:48:26;;;;;;;41.05;12.20;;;;;;;11.21;100.00;97407.56;5070017;28;20025;-74
2023/10/31 05:50:51;;;;;;;26.25;11.25;;;;;;;11.42;100.00;97400.75;5069855;28;20048;-74
2023/10/31 05:53:17;;;;;;;27.48;12.43;;;;;;;12.34;100.00;97389.88;5069709;28;20480;-74
2023/10/31 05:55:42;;;;;;;23.73;10.15;;;;;;;13.80;100.00;97390.56;5071056;28;20078;-73
2023/10/31 05:58:08;;;;;;;26.95;8.82;;;;;;;15.36;100.00;97367.94;5069887;28;20028;-75
2023/10/31 06:00:34;;;;;;;20.92;7.95;;;;;;;16.25;100.00;97360.22;5071024;28;20027;-73
2023/10/31 06:03:00;;;;;;;24.55;9.57;;;;;;;17.08;100.00;97353.69;5070981;28;20016;-72
2023/10/31 06:05:26;;;;;;;38.60;9.68;;;;;;;17.99;100.00;97348.75;5069571;28;20025;-73
2023/10/31 06:07:51;;;;;;;23.98;6.65;;;;;;;17.92;100.00;97349.44;5052987;28;20059;-75
2023/10/31 06:10:17;;;;;;;15.68;6.65;;;;;;;19.19;100.00;97356.78;5069200;28;20031;-75
2023/10/31 06:12:42;;;;;;;24.35;9.18;;;;;;;20.46;89.80;97340.06;5053130;28;20103;-73
2023/10/31 06:15:08;;;;;;;20.58;8.52;;;;;;;21.75;78.50;97324.16;5070813;28;20036;-74
2023/10/31 06:17:34;;;;;;;33.17;11.25;;;;;;;22.04;72.61;97324.53;5070493;28;20033;-74
2023/10/31 06:20:00;;;;;;;33.25;11.23;;;;;;;22.76;67.17;97333.63;5069556;28;20025;-74
2023/10/31 06:22:26;;;;;;;26.23;7.75;;;;;;;22.99;63.77;97314.56;5069148;28;20044;-73
2023/10/31 06:24:51;;;;;;;30.55;11.80;;;;;;;23.03;62.19;97319.50;5068697;28;20028;-74
2023/10/31 06:27:17;;;;;;;32.30;10.40;;;;;;;23.29;60.63;97312.91;5070511;28;20028;-74
2023/10/31 06:29:42;;;;;;;23.02;10.55;;;;;;;22.81;63.59;97319.44;5070881;28;20037;-74
2023/10/31 06:32:08;;;;;;;30.05;9.00;;;;;;;23.27;62.16;97317.66;5069517;28;20133;-74
2023/10/31 06:34:33;;;;;;;20.83;9.00;;;;;;;23.72;59.16;97312.25;5085696;28;20040;-73
2023/10/31 06:36:59;;;;;;;20.95;7.70;;;;;;;23.26;61.13;97314.06;5070626;28;20027;-73
2023/10/31 06:39:24;;;;;;;28.13;8.95;;;;;;;24.10;58.08;97316.72;5068888;28;20082;-74
2023/10/31 06:41:50;;;;;;;17.15;7.35;;;;;;;24.45;56.39;97308.91;5069412;28;20464;-74
2023/10/31 06:44:16;;;;;;;25.23;6.70;;;;;;;24.48;56.30;97309.38;5069006;28;20108;-74
2023/10/31 06:46:41;;;;;;;18.60;7.65;;;;;;;24.62;55.00;97296.72;5052320;28;20028;-74
2023/10/31 06:49:07;;;;;;;28.95;8.45;;;;;;;24.85;54.88;97313.09;5070375;28;20055;-74
2023/10/31 06:51:32;;;;;;;22.55;9.98;;;;;;;25.35;52.78;97304.84;5069089;28;20546;-74
2023/10/31 06:53:58;;;;;;;24.98;9.73;;;;;;;25.21;53.34;97312.09;5070327;28;20392;-74
2023/10/31 06:56:23;;;;;;;20.75;6.85;;;;;;;25.36;52.18;97303.81;5068805;28;20123;-74
2023/10/31 06:58:49;;;;;;;27.35;14.25;;;;;;;26.29;50.46;97306.47;5070254;28;20044;-74
2023/10/31 07:01:18;;;;;;;15.32;6.95;;;;;;;25.90;50.16;97301.47;5070204;28;20024;-74
2023/10/31 07:03:43;;;;;;;15.70;6.60;;;;;;;26.37;48.84;97292.59;5068755;28;20067;-74
2023/10/31 07:06:09;;;;;;;22.23;7.53;;;;;;;26.72;48.15;97297.06;5069031;28;20499;-75
2023/10/31 07:08:34;;;;;;;36.85;9.00;;;;;;;27.41;47.02;97289.56;5068726;28;20032;-75
2023/10/31 07:11:00;;;;;;;34.47;9.43;;;;;;;27.39;47.39;97288.94;5070210;28;20518;-74
2023/10/31 07:13:26;;;;;;;12.20;5.93;;;;;;;27.68;46.48;97282.28;5070005;28;20063;-74
2023/10/31 07:15:51;;;;;;;25.05;5.72;;;;;;;27.55;46.41;97287.75;5070131;28;20028;-74
2023/10/31 07:18:17;;;;;;;26.88;5.80;;;;;;;28.04;45.56;97276.41;5068736;28;20029;-74
2023/10/31 07:20:42;;;;;;;11.35;4.60;;;;;;;28.93;43.34;97268.50;5069285;28;20052;-75
2023/10/31 07:23:08;;;;;;;32.03;8.65;;;;;;;29.19;43.04;97259.28;5069756;28;20140;-74
2023/10/31 07:25:33;;;;;;;37.03;8.68;;;;;;;29.66;42.27;97252.47;5069964;28;20166;-74
2023/10/31 07:27:59;;;;;;;45.22;7.75;;;;;;;30.40;40.87;97255.31;5070143;28;20028;-74
2023/10/31 07:30:24;;;;;;;11.70;3.85;;;;;;;30.64;39.51;97247.00;5070038;28;20549;-73
2023/10/31 07:32:50;;;;;;;3.72;2.08;;;;;;;30.17;35.98;97217.28;5068442;28;20033;-74
2023/10/31 07:35:15;;;;;;;8.43;2.05;;;;;;;30.67;35.29;97215.31;5068467;28;20435;-74
2023/10/31 07:37:41;;;;;;;5.18;2.05;;;;;;;29.35;36.05;97198.16;5071690;28;20020;-74
2023/10/31 07:40:07;;;;;;;5.57;1.67;;;;;;;28.91;36.63;97201.75;5072430;28;20483;-74
2023/10/31 07:42:32;;;;;;;2.72;1.42;;;;;;;28.38;37.00;97201.06;5073325;28;20245;-74
2023/10/31 07:44:58;;;;;;;3.85;1.75;;;;;;;28.20;37.98;97198.13;5072058;28;20025;-74
2023/10/31 07:47:23;;;;;;;4.93;1.73;;;;;;;27.52;39.32;97210.38;5073458;28;20032;-73
2023/10/31 07:49:49;;;;;;;7.00;2.15;;;;;;;27.37;39.35;97200.38;5073414;28;20177;-73
2023/10/31 07:52:15;;;;;;;5.75;1.80;;;;;;;27.24;39.28;97194.88;5055274;28;20032;-73
2023/10/31 07:54:40;;;;;;;9.93;1.92;;;;;;;27.67;39.04;97186.28;5071832;28;20026;-73
2023/10/31 07:57:06;;;;;;;8.63;1.90;;;;;;;28.05;38.36;97187.38;5071808;28;20031;-74
2023/10/31 07:59:35;;;;;;;3.35;1.63;;;;;;;28.52;37.04;97188.94;5071934;28;20028;-74
2023/10/31 08:02:01;;;;;;;5.30;2.20;;;;;;;28.55;36.86;97184.94;5073082;28;20025;-74
2023/10/31 08:04:28;;;;;;;9.77;2.15;;;;;;;28.51;37.19;97177.09;5071445;28;20119;-73
2023/10/31 08:06:53;;;;;;;3.33;2.00;;;;;;;29.25;36.01;97171.09;5071997;28;20033;-74
2023/10/31 08:09:19;;;;;;;3.53;2.08;;;;;;;28.82;36.37;97170.03;5071708;28;20039;-74
2023/10/31 08:11:44;;;;;;;6.13;1.95;;;;;;;28.95;35.83;97169.94;5054952;28;20459;-74
2023/10/31 08:14:10;;;;;;;5.55;2.20;;;;;;;28.67;35.70;97152.94;5088512;28;20123;-75
2023/10/31 08:16:35;;;;;;;4.75;2.40;;;;;;;28.44;36.69;97151.50;5072966;28;20082;-73
2023/10/31 08:19:02;;;;;;;3.50;1.50;;;;;;;28.23;36.54;97139.91;5071785;28;20028;-73
2023/10/31 08:21:33;;;;;;;2.53;1.50;;;;;;;28.01;36.57;97139.31;5072494;28;20416;-74
2023/10/31 08:23:59;;;;;;;10.13;2.55;;;;;;;27.71;36.50;97141.66;5072938;28;20032;-73
2023/10/31 08:26:25;;;;;;;3.40;2.33;;;;;;;28.19;35.99;97128.50;5071317;28;20484;-74
2023/10/31 08:28:51;;;;;;;2.30;1.55;;;;;;;28.65;35.01;97136.63;5072982;28;20120;-73
2023/10/31 08:31:17;;;;;;;3.15;1.85;;;;;;;28.21;35.51;97126.38;5071617;28;20453;-74
2023/10/31 08:33:42;;;;;;;2.95;1.70;;;;;;;28.25;35.04;97124.03;5071452;28;20024;-73
2023/10/31 08:36:08;;;;;;;3.53;1.80;;;;;;;28.45;35.33;97124.81;5071699;28;20040;-74
2023/10/31 08:38:34;;;;;;;9.85;1.42;;;;;;;28.63;35.16;97126.88;5071059;28;20062;-73
2023/10/31 08:41:00;;;;;;;3.22;1.65;;;;;;;28.21;36.08;97131.88;5071335;28;20495;-74
2023/10/31 08:43:25;;;;;;;4.32;1.63;;;;;;;28.63;34.56;97124.97;5071319;28;20032;-74
2023/10/31 08:45:51;;;;;;;4.28;1.35;;;;;;;28.54;34.34;97137.28;5071378;28;20040;-74
2023/10/31 08:48:17;;;;;;;6.20;1.88;;;;;;;28.80;33.46;97117.91;5071655;28;20116;-73
2023/10/31 08:50:42;;;;;;;4.53;1.88;;;;;;;28.49;33.89;97112.28;5054274;28;20036;-73
2023/10/31 08:53:08;;;;;;;2.65;1.52;;;;;;;28.80;33.87;97114.31;5071277;28;20341;-73
2023/10/31 08:55:33;;;;;;;3.25;1.60;;;;;;;28.87;34.25;97109.63;5070759;28;20029;-73
2023/10/31 08:57:59;;;;;;;5.78;1.92;;;;;;;28.35;34.72;97119.78;5070801;28;20035;-74
2023/10/31 09:00:24;;;;;;;4.45;1.90;;;;;;;28.62;35.40;97126.00;5070934;28;20028;-74
2023/10/31 09:02:50;;;;;;;7.28;1.90;;;;;;;28.87;35.34;97126.13;5070752;28;20460;-74
2023/10/31 09:05:15;;;;;;;7.43;2.17;;;;;;;28.96;35.35;97116.56;5070828;28;20055;-73
2023/10/31 09:07:41;;;;;;;6.95;2.30;;;;;;;29.27;34.42;97107.47;5087480;28;20066;-74
2023/10/31 09:10:07;;;;;;;3.45;1.55;;;;;;;29.56;33.38;97109.59;5070870;28;20107;-75
2023/10/31 09:12:33;;;;;;;2.95;1.65;;;;;;;29.34;34.34;97094.50;5070479;28;20655;-75
2023/10/31 09:14:59;;;;;;;3.15;1.48;;;;;;;29.73;33.24;97091.41;5070901;28;20412;-74
2023/10/31 09:17:24;;;;;;;2.55;1.40;;;;;;;29.86;33.11;97082.19;5070730;28;20025;-74
2023/10/31 09:19:50;;;;;;;4.40;1.83;;;;;;;30.23;33.13;97072.88;5087369;28;20531;-75
2023/10/31 09:22:16;;;;;;;4.60;1.60;;;;;;;30.55;32.24;97066.09;5070465;28;20455;-75
2023/10/31 09:24:42;;;;;;;5.70;2.13;;;;;;;30.84;31.96;97071.88;5071356;28;20028;-74
2023/10/31 09:27:08;;;;;;;5.82;1.83;;;;;;;30.33;31.64;97064.84;5070475;28;20077;-74
2023/10/31 09:29:33;;;;;;;5.70;2.03;;;;;;;29.94;32.45;97060.66;5070349;28;20028;-74
2023/10/31 09:31:59;;;;;;;5.18;2.30;;;;;;;30.40;31.92;97075.84;5070128;28;20032;-74
2023/10/31 09:34:24;;;;;;;6.05;1.83;;;;;;;30.61;31.70;97062.41;5053608;28;20035;-74
2023/10/31 09:36:50;;;;;;;6.38;2.00;;;;;;;30.43;32.23;97061.59;5070155;28;20024;-74
2023/10/31 09:39:16;;;;;;;3.20;1.77;;;;;;;29.74;31.81;97064.66;5086878;28;20457;-73
2023/10/31 09:41:41;;;;;;;6.45;1.70;;;;;;;29.39;31.96;97040.38;5053582;28;20089;-75
2023/10/31 09:44:07;;;;;;;5.40;1.83;;;;;;;28.31;33.31;97046.97;5070131;28;20031;-75
2023/10/31 09:46:33;;;;;;;3.08;1.65;;;;;;;29.05;32.80;97038.09;5071315;28;20057;-75
2023/10/31 09:48:59;;;;;;;4.05;1.88;;;;;;;29.46;32.15;97046.69;5069683;28;20028;-74
2023/10/31 09:51:25;;;;;;;3.47;1.60;;;;;;;29.40;31.65;97020.03;5069947;28;20039;-74
2023/10/31 09:53:54;;;;;;;3.92;1.80;;;;;;;29.78;31.45;97027.28;5069454;28;20045;-75
2023/10/31 09:56:20;;;;;;;5.22;1.45;;;;;;;29.11;32.11;97017.91;5069646;28;20032;-74
2023/10/31 09:58:46;;;;;;;4.88;1.58;;;;;;;29.31;31.42;97026.91;5069651;28;20111;-73
2023/10/31 10:01:12;;;;;;;2.95;1.60;;;;;;;29.48;31.43;97022.47;5071276;28;20082;-74
2023/10/31 10:03:38;;;;;;;3.20;1.73;;;;;;;29.46;31.82;97015.50;5069916;28;20020;-74
2023/10/31 10:06:04;;;;;;;4.05;1.77;;;;;;;29.95;31.15;96998.03;5069466;28;20040;-74
2023/10/31 10:08:41;;;;;;;2.00;1.52;;;;;;;30.56;30.25;96992.38;5052844;28;20056;-74
2023/10/31 10:11:06;;;;;;;3.42;1.83;;;;;;;31.05;30.05;96991.25;5037278;28;20036;-75
2023/10/31 10:13:32;;;;;;;4.45;1.60;;;;;;;31.01;29.36;96985.34;5069596;28;20031;-74
2023/10/31 10:15:59;;;;;;;3.50;1.92;;;;;;;31.61;28.99;96972.22;5069325;28;20082;-75
2023/10/31 10:18:29;;;;;;;2.70;1.70;;;;;;;31.45;28.23;96959.06;5069417;28;20024;-75
2023/10/31 10:20:59;;;;;;;1.92;1.13;;;;;;;31.45;28.23;96969.28;5069068;28;20352;-75
2023/10/31 10:23:25;;;;;;;3.95;1.70;;;;;;;31.81;28.36;96968.22;5069342;28;20119;-75
2023/10/31 10:25:52;;;;;;;14.52;1.50;;;;;;;31.83;27.94;96960.50;5068976;28;20027;-75
2023/10/31 10:28:19;;;;;;;9.85;1.50;;;;;;;31.91;27.57;96962.88;5069396;28;20033;-74
2023/10/31 10:30:48;;;;;;;2.70;1.60;;;;;;;32.08;27.44;96952.78;5069206;28;20024;-74
2023/10/31 10:33:15;;;;;;;4.53;2.13;;;;;;;31.22;27.94;96945.25;5069365;28;20025;-75
2023/10/31 10:35:42;;;;;;;2.65;1.38;;;;;;;31.38;28.00;96950.03;5068911;28;20039;-75
2023/10/31 10:38:12;;;;;;;3.72;1.70;;;;;;;31.76;27.77;96945.94;5052268;28;20028;-75
2023/10/31 10:40:40;;;;;;;3.30;2.15;;;;;;;31.79;27.42;96926.94;5085785;28;20052;-74
2023/10/31 10:43:11;;;;;;;2.92;1.60;;;;;;;32.29;27.23;96931.88;5085683;28;20542;-74
2023/10/31 10:45:38;;;;;;;5.32;1.40;;;;;;;31.78;27.18;96921.66;5069153;28;20039;-74
2023/10/31 10:48:06;;;;;;;3.20;1.40;;;;;;;31.11;27.50;96924.81;5068940;28;20029;-74
2023/10/31 10:50:33;;;;;;;3.47;1.60;;;;;;;31.55;27.16;96917.84;5069236;28;20021;-75
2023/10/31 10:53:18;;;;;;;1.65;1.48;;;;;;;31.84;26.87;96907.66;5066322;28;20046;-75
2023/10/31 10:55:45;;;;;;;2.25;1.70;;;;;;;31.62;26.94;96910.25;5068847;28;20024;-74
2023/10/31 10:58:58;;;;;;;5.32;1.60;;;;;;;30.66;27.86;96917.25;5052107;28;20480;-75
2023/10/31 11:01:25;;;;;;;3.30;1.65;;;;;;;31.00;27.47;96894.41;5042954;28;20032;-75
2023/10/31 11:03:51;;;;;;;1.73;1.30;;;;;;;31.51;27.19;96888.16;5065486;28;20125;-74
2023/10/31 11:06:21;;;;;;;3.63;1.70;;;;;;;31.49;27.32;96893.94;5069137;28;20032;-74
2023/10/31 11:08:47;;;;;;;4.68;1.60;;;;;;;31.97;26.58;96876.13;5085525;28;20048;-74
2023/10/31 11:11:15;;;;;;;5.75;1.67;;;;;;;31.74;26.41;96873.44;5069528;28;20205;-73
2023/10/31 11:13:43;;;;;;;4.32;1.30;;;;;;;31.17;26.44;96870.47;5073079;28;20029;-75
2023/10/31 11:16:15;;;;;;;6.25;1.60;;;;;;;31.09;26.52;96855.13;5072856;28;20024;-75
2023/10/31 11:18:53;;;;;;;5.95;1.90;;;;;;;31.67;26.38;96862.50;5074674;28;20024;-75
2023/10/31 11:21:22;;;;;;;5.90;1.55;;;;;;;32.39;25.81;96855.38;5089562;28;20052;-74